Skip Navigation LinksHome page > Weather > Current weather Skip Navigation Links

Current Weather

Alert, Nunavut

For information only: do not use for flight planning or navigation.
Latest weather
Observation time Tuesday, December 1, 2015 3:00 AM EST
Local time Tuesday, December 1, 2015 4:11 AM EST
Flight conditions Visual Meteorological Conditions
Wind direction North-Northwest (340°)
Wind speed 5 mph
Visibility 15 mi.
Sky condition
Ceiling unlimited
Sky clear
Temperature -31°F
Dewpoint -38°F
Altimeter 29.90 in.Hg
Derived measurements
Relative humidity 67%
Wind chill -46°F
Density altitude -6612 ft.
Sea-level pressure 29.92 in.Hg
METAR CYLT 010800Z 34004KT 15SM SKC M35/M39 A2990 RMK FG BANK OVR WTR SLP133


Location code

InnerDrive.Weather 4.0.5722.1 Release CLR 4.0.30319.34014
Copyright ©2015 Inner Drive Technology. All rights reserved. Portions Copyright ©1986-2015 David Braverman.

Find weather

Site navigation

Skip Navigation Links

Place info

Page info

PayPal - The safer, easier way to pay online!

Return home.

Copyright ©2015 Inner Drive Technology. Purveyors of fine, hand-crafted computer software. Page printed 2015-12-01T09:11:49 UTC.